Terminal Aerodrome Forecast
Issued by NWS

Home | Current Version | Previous Version | Text Only | Print | Product List | Glossary On
Versions: 1 2 3 4 5 6 7 8 9 10 11 12 13
421
FTUS44 KLZK 192320
TAFLLQ
TAF
KLLQ 192320Z 2000/2024 21008KT P6SM SCT035 SCT050
     FM200200 18003KT P6SM SCT250
      TEMPO 2009/2013 5SM BR
     FM201500 20008G15KT P6SM SCT050 SCT250=

USA.gov is the U.S. government's official web portal to all federal, state and local government web resources and services.